Time;durP1;ratioP1;P1;durP2;ratioP2;P2;SDS_P1;SDS_P2;PMS_P1;PMS_P2;Temp;Humidity;BMP_temperature;BMP_pressure;BME280_temperature;BME280_humidity;BME280_pressure;Samples;Min_cycle;Max_cycle;Signal;HPM_P1;HPM_P2
2021/09/22 00:05:17;;;;;;;10.30;8.18;;;;;;;;;;4947645;28;20095;-93
2021/09/22 00:08:02;;;;;;;11.25;8.15;;;;;;;;;;5010965;28;20107;-93
2021/09/22 00:10:48;;;;;;;13.88;9.25;;;;;;;;;;5061934;28;20027;-92
2021/09/22 00:21:15;;;;;;;;;;;;;;;;;;;;;
2021/09/22 00:34:47;;;;;;;10.50;8.18;;;;;;;;;;4870823;29;20447;-92
2021/09/22 00:37:32;;;;;;;10.85;8.57;;;;;;;;;;4934625;28;20037;-92
2021/09/22 00:40:18;;;;;;;12.60;8.15;;;;;;;;;;5076509;28;20028;-91
2021/09/22 00:43:05;;;;;;;15.95;9.43;;;;;;;;;;5106057;28;20059;-92
2021/09/22 00:45:51;;;;;;;14.10;8.80;;;;;;;;;;5077182;28;20036;-91
2021/09/22 00:48:36;;;;;;;11.25;8.30;;;;;;;;;;5075172;28;20554;-92
2021/09/22 00:51:22;;;;;;;10.45;7.95;;;;;;;;;;5072020;28;20035;-91
2021/09/22 00:54:07;;;;;;;12.07;8.32;;;;;;;;;;5083232;28;20450;-91
2021/09/22 00:56:52;;;;;;;14.75;8.93;;;;;;;;;;5071164;28;20241;-91
2021/09/22 00:59:38;;;;;;;12.43;8.77;;;;;;;;;;5059483;28;20032;-92
2021/09/22 01:02:23;;;;;;;11.38;7.88;;;;;;;;;;5067712;28;20024;-91
2021/09/22 01:05:08;;;;;;;10.38;8.30;;;;;;;;;;5065578;28;20475;-93
2021/09/22 01:07:54;;;;;;;11.35;8.82;;;;;;;;;;5071112;28;20330;-91
2021/09/22 01:10:48;;;;;;;10.23;7.97;;;;;;;;;;5083222;28;20117;-92
2021/09/22 01:13:36;;;;;;;12.35;8.32;;;;;;;;;;5059086;28;20028;-92
2021/09/22 01:16:32;;;;;;;10.73;8.57;;;;;;;;;;5061878;28;20027;-94
2021/09/22 01:19:38;;;;;;;;;;;;;;;;;;;;;
2021/09/22 01:22:44;;;;;;;13.40;9.32;;;;;;;;;;5045210;28;20025;-92
2021/09/22 01:25:40;;;;;;;;;;;;;;;;;;;;;
2021/09/22 01:28:26;;;;;;;13.68;9.02;;;;;;;;;;5074294;28;20097;-94
2021/09/22 01:31:12;;;;;;;10.25;7.72;;;;;;;;;;5063209;28;20024;-93
2021/09/22 01:33:59;;;;;;;13.18;9.82;;;;;;;;;;5062318;28;20108;-93
2021/09/22 01:36:47;;;;;;;14.07;10.35;;;;;;;;;;5060720;28;20375;-90
2021/09/22 01:39:39;;;;;;;13.35;8.48;;;;;;;;;;5060748;28;20364;-92
2021/09/22 01:42:25;;;;;;;12.70;9.82;;;;;;;;;;5072817;28;20554;-91
2021/09/22 01:45:12;;;;;;;12.02;9.52;;;;;;;;;;5054250;28;20057;-92
2021/09/22 01:47:58;;;;;;;11.55;8.95;;;;;;;;;;5057481;28;20408;-90
2021/09/22 01:50:44;;;;;;;11.10;8.00;;;;;;;;;;5069257;28;20083;-92
2021/09/22 01:53:31;;;;;;;14.77;9.38;;;;;;;;;;5061325;28;20036;-92
2021/09/22 01:56:48;;;;;;;13.80;8.95;;;;;;;;;;5079501;28;20044;-94
2021/09/22 01:59:36;;;;;;;12.20;9.65;;;;;;;;;;5065473;28;20514;-93
2021/09/22 02:05:50;;;;;;;11.15;8.80;;;;;;;;;;5071800;28;20421;-92
2021/09/22 02:15:50;;;;;;;14.73;10.50;;;;;;;;;;5055435;28;20032;-93
2021/09/22 02:25:40;;;;;;;14.73;10.13;;;;;;;;;;4935226;29;20028;-91
2021/09/22 03:21:44;;;;;;;11.75;8.98;;;;;;;;;;5028345;28;20063;-93
2021/09/22 03:24:31;;;;;;;14.05;10.05;;;;;;;;;;5019731;28;20044;-93
2021/09/22 03:27:52;;;;;;;12.75;9.15;;;;;;;;;;4997179;28;20354;-93
2021/09/22 03:51:41;;;;;;;15.02;11.40;;;;;;;;;;5029625;28;20053;-93
2021/09/22 03:54:40;;;;;;;16.77;11.57;;;;;;;;;;5011355;28;20042;-94
2021/09/22 04:01:28;;;;;;;;;;;;;;;;;;;;;
2021/09/22 04:19:38;;;;;;;;;;;;;;;;;;;;;
2021/09/22 04:35:52;;;;;;;15.82;11.40;;;;;;;;;;4803406;29;20086;-91
2021/09/22 04:38:37;;;;;;;14.40;10.75;;;;;;;;;;4777551;30;20118;-93
2021/09/22 04:41:32;;;;;;;13.52;10.25;;;;;;;;;;4887138;28;20033;-94
2021/09/22 04:44:20;;;;;;;14.30;10.48;;;;;;;;;;5014750;28;20025;-93
2021/09/22 04:47:06;;;;;;;13.05;9.57;;;;;;;;;;5003831;28;20523;-92
2021/09/22 04:49:53;;;;;;;14.07;10.75;;;;;;;;;;5017998;28;20105;-93
2021/09/22 04:52:39;;;;;;;15.00;11.10;;;;;;;;;;5011327;28;20022;-93
2021/09/22 05:48:29;;;;;;;16.27;12.52;;;;;;;;;;5345239;23;20060;-89
2021/09/22 05:51:15;;;;;;;18.23;12.70;;;;;;;;;;5016311;28;20025;-90
2021/09/22 05:54:00;;;;;;;14.98;11.70;;;;;;;;;;5011802;28;20033;-88
2021/09/22 05:56:46;;;;;;;18.52;13.00;;;;;;;;;;5011061;28;20080;-89
2021/09/22 05:59:32;;;;;;;16.70;12.65;;;;;;;;;;5013995;28;20029;-84
2021/09/22 06:02:18;;;;;;;16.77;11.52;;;;;;;;;;5014708;28;20017;-94
2021/09/22 06:05:04;;;;;;;18.05;11.68;;;;;;;;;;4998557;28;20213;-87
2021/09/22 06:07:49;;;;;;;16.00;11.18;;;;;;;;;;5015020;28;20108;-88
2021/09/22 06:10:35;;;;;;;16.50;13.30;;;;;;;;;;5008591;28;20021;-88
2021/09/22 06:13:20;;;;;;;16.90;12.98;;;;;;;;;;5023059;28;20021;-89
2021/09/22 06:16:06;;;;;;;14.85;12.02;;;;;;;;;;5011750;28;20415;-90
2021/09/22 06:18:51;;;;;;;14.68;11.68;;;;;;;;;;4998427;28;20498;-88
2021/09/22 06:21:37;;;;;;;27.30;12.27;;;;;;;;;;5016797;28;20029;-92
2021/09/22 06:24:22;;;;;;;15.48;12.27;;;;;;;;;;5012454;28;20068;-91
2021/09/22 06:27:08;;;;;;;18.13;13.40;;;;;;;;;;5000185;28;20026;-93
2021/09/22 06:29:53;;;;;;;16.48;12.85;;;;;;;;;;5013815;28;20499;-89
2021/09/22 06:32:38;;;;;;;18.70;13.40;;;;;;;;;;5008434;28;20545;-88
2021/09/22 06:35:59;;;;;;;18.00;13.15;;;;;;;;;;4994488;28;20034;-89
2021/09/22 06:38:42;;;;;;;18.55;13.63;;;;;;;;;;4967339;28;20029;-92
2021/09/22 06:41:29;;;;;;;16.73;12.70;;;;;;;;;;5009996;28;20429;-90
2021/09/22 06:44:15;;;;;;;17.25;13.18;;;;;;;;;;4995474;28;20561;-89
2021/09/22 06:47:00;;;;;;;17.38;13.32;;;;;;;;;;4982812;28;20053;-88
2021/09/22 06:49:45;;;;;;;16.35;13.05;;;;;;;;;;4991668;28;20030;-87
2021/09/22 06:52:31;;;;;;;16.20;13.45;;;;;;;;;;4992851;28;20357;-87
2021/09/22 06:55:16;;;;;;;17.20;13.15;;;;;;;;;;5007212;28;20026;-87
2021/09/22 06:58:01;;;;;;;21.77;13.98;;;;;;;;;;4996180;28;20030;-88
2021/09/22 07:00:47;;;;;;;19.30;13.02;;;;;;;;;;4995594;28;20073;-88
2021/09/22 07:03:32;;;;;;;17.83;13.82;;;;;;;;;;4995487;28;20026;-91
2021/09/22 07:06:43;;;;;;;18.08;14.00;;;;;;;;;;4999473;28;20057;-95
2021/09/22 07:10:05;;;;;;;21.92;14.30;;;;;;;;;;4971149;28;20045;-94
2021/09/22 07:12:52;;;;;;;22.27;15.77;;;;;;;;;;4992783;28;20557;-89
2021/09/22 07:15:37;;;;;;;19.13;15.50;;;;;;;;;;4980405;28;20025;-86
2021/09/22 07:18:23;;;;;;;23.23;14.20;;;;;;;;;;4992491;28;20051;-84
2021/09/22 07:21:08;;;;;;;21.10;14.23;;;;;;;;;;4996508;28;20030;-89
2021/09/22 07:23:53;;;;;;;21.02;14.77;;;;;;;;;;4994053;28;20060;-87
2021/09/22 07:26:39;;;;;;;18.40;15.20;;;;;;;;;;4989903;28;20395;-87
2021/09/22 07:29:24;;;;;;;23.85;15.30;;;;;;;;;;4994901;28;20494;-88
2021/09/22 07:32:09;;;;;;;22.23;15.30;;;;;;;;;;4981278;28;20037;-81
2021/09/22 07:34:54;;;;;;;20.42;14.57;;;;;;;;;;4992616;28;20024;-83
2021/09/22 07:37:40;;;;;;;20.52;15.20;;;;;;;;;;4991193;28;20028;-83
2021/09/22 07:40:25;;;;;;;26.75;15.60;;;;;;;;;;4993361;28;20480;-82
2021/09/22 07:43:10;;;;;;;22.17;15.93;;;;;;;;;;4989565;28;20415;-83
2021/09/22 07:45:56;;;;;;;20.20;14.40;;;;;;;;;;4992541;28;20036;-79
2021/09/22 07:48:41;;;;;;;21.40;16.38;;;;;;;;;;4992924;28;20038;-79
2021/09/22 07:51:26;;;;;;;25.05;15.68;;;;;;;;;;4993531;28;20288;-79
2021/09/22 07:54:12;;;;;;;22.48;15.45;;;;;;;;;;4982988;28;20100;-79
2021/09/22 07:56:57;;;;;;;20.88;16.02;;;;;;;;;;4987094;28;20105;-79
2021/09/22 07:59:42;;;;;;;18.00;14.20;;;;;;;;;;4991184;28;20029;-79
2021/09/22 08:02:27;;;;;;;21.05;16.08;;;;;;;;;;4978696;28;20045;-80
2021/09/22 08:05:13;;;;;;;19.80;15.68;;;;;;;;;;4992339;28;20034;-79
2021/09/22 08:07:58;;;;;;;23.02;16.90;;;;;;;;;;4994894;28;20076;-80
2021/09/22 08:10:44;;;;;;;20.17;14.15;;;;;;;;;;4996423;28;20029;-80
2021/09/22 08:13:29;;;;;;;22.10;14.85;;;;;;;;;;4997668;28;20030;-79
2021/09/22 08:16:14;;;;;;;20.02;14.77;;;;;;;;;;4982883;28;20030;-79
2021/09/22 08:18:59;;;;;;;17.75;15.00;;;;;;;;;;4991365;28;20087;-79
2021/09/22 08:21:45;;;;;;;20.75;16.02;;;;;;;;;;4992437;28;20053;-78
2021/09/22 08:24:30;;;;;;;18.80;14.75;;;;;;;;;;4997006;28;20025;-78
2021/09/22 08:27:15;;;;;;;18.73;14.18;;;;;;;;;;4990962;28;20636;-79
2021/09/22 08:30:01;;;;;;;17.60;13.77;;;;;;;;;;4993483;28;20018;-78
2021/09/22 08:32:46;;;;;;;17.65;14.57;;;;;;;;;;4995429;28;20026;-78
2021/09/22 08:35:31;;;;;;;19.40;14.02;;;;;;;;;;4995902;28;20044;-78
2021/09/22 08:38:17;;;;;;;18.20;13.93;;;;;;;;;;4995925;28;20033;-78
2021/09/22 08:41:02;;;;;;;19.13;14.10;;;;;;;;;;4996953;28;20092;-79
2021/09/22 08:43:48;;;;;;;20.23;12.80;;;;;;;;;;4995077;28;20531;-78
2021/09/22 08:46:34;;;;;;;14.00;11.93;;;;;;;;;;4997146;28;20038;-79
2021/09/22 08:49:19;;;;;;;16.30;12.85;;;;;;;;;;4993577;28;20416;-79
2021/09/22 08:52:04;;;;;;;15.88;12.80;;;;;;;;;;4995007;28;20041;-80
2021/09/22 08:54:50;;;;;;;16.90;13.27;;;;;;;;;;4997059;28;20042;-80
2021/09/22 08:57:35;;;;;;;16.63;12.00;;;;;;;;;;4995461;28;20029;-80
2021/09/22 09:00:20;;;;;;;17.92;12.07;;;;;;;;;;4991633;28;20048;-79
2021/09/22 09:03:05;;;;;;;18.60;12.23;;;;;;;;;;4995523;28;20045;-79
2021/09/22 09:05:51;;;;;;;18.27;12.02;;;;;;;;;;4991981;28;20025;-79
2021/09/22 09:08:39;;;;;;;20.08;12.23;;;;;;;;;;4995220;28;20380;-80
2021/09/22 09:11:26;;;;;;;13.77;10.88;;;;;;;;;;4990079;28;20029;-80
2021/09/22 09:14:13;;;;;;;14.55;11.48;;;;;;;;;;4995285;28;20045;-81
2021/09/22 09:17:00;;;;;;;16.17;10.50;;;;;;;;;;4993709;28;20057;-83
2021/09/22 09:19:47;;;;;;;15.48;9.57;;;;;;;;;;4993855;28;20133;-81
2021/09/22 09:22:32;;;;;;;15.50;8.77;;;;;;;;;;4994184;28;20113;-81
2021/09/22 09:25:25;;;;;;;10.25;7.82;;;;;;;;;;4994401;28;20064;-81
2021/09/22 09:28:18;;;;;;;14.20;7.65;;;;;;;;;;4995170;28;20104;-81
2021/09/22 09:31:06;;;;;;;12.23;8.18;;;;;;;;;;4994481;28;20018;-81
2021/09/22 09:33:52;;;;;;;13.65;7.40;;;;;;;;;;4992612;28;20040;-80
2021/09/22 09:36:48;;;;;;;10.10;7.07;;;;;;;;;;4995646;28;20022;-80
2021/09/22 09:39:39;;;;;;;12.00;7.00;;;;;;;;;;5006824;28;20129;-80
2021/09/22 09:42:28;;;;;;;10.80;6.72;;;;;;;;;;4995971;28;20025;-81
2021/09/22 09:45:14;;;;;;;9.88;6.80;;;;;;;;;;4994914;28;20051;-80
2021/09/22 09:48:00;;;;;;;11.57;6.78;;;;;;;;;;4995873;28;20057;-80
2021/09/22 09:50:45;;;;;;;9.55;7.25;;;;;;;;;;4994784;28;20029;-80
2021/09/22 09:53:32;;;;;;;8.65;6.68;;;;;;;;;;4992391;28;20018;-79
2021/09/22 09:56:18;;;;;;;9.73;6.65;;;;;;;;;;4994521;28;20038;-80
2021/09/22 09:59:04;;;;;;;9.05;6.63;;;;;;;;;;4996064;28;20532;-80
2021/09/22 10:01:51;;;;;;;9.82;6.25;;;;;;;;;;4994160;28;20042;-80
2021/09/22 10:04:37;;;;;;;10.20;6.82;;;;;;;;;;4995894;28;20030;-80
2021/09/22 10:07:22;;;;;;;7.85;5.82;;;;;;;;;;4995368;28;20026;-81
2021/09/22 10:10:08;;;;;;;10.30;6.20;;;;;;;;;;5001521;28;20030;-79
2021/09/22 10:12:57;;;;;;;10.55;5.70;;;;;;;;;;4995478;28;20033;-82
2021/09/22 10:15:43;;;;;;;8.35;5.28;;;;;;;;;;4993049;28;20026;-82
2021/09/22 10:18:28;;;;;;;8.95;4.90;;;;;;;;;;4995617;28;20056;-81
2021/09/22 10:21:15;;;;;;;8.85;5.53;;;;;;;;;;4993338;28;20025;-81
2021/09/22 10:24:01;;;;;;;8.35;5.03;;;;;;;;;;4994704;28;20029;-82
2021/09/22 10:26:47;;;;;;;9.30;5.85;;;;;;;;;;5002529;28;20045;-82
2021/09/22 10:29:37;;;;;;;7.85;4.63;;;;;;;;;;4991221;28;20025;-82
2021/09/22 10:32:39;;;;;;;8.30;5.43;;;;;;;;;;4991121;28;20026;-82
2021/09/22 10:35:25;;;;;;;6.38;4.65;;;;;;;;;;4994118;28;20476;-82
2021/09/22 10:38:19;;;;;;;8.82;6.07;;;;;;;;;;4993108;28;20030;-82
2021/09/22 10:41:05;;;;;;;8.52;5.38;;;;;;;;;;4980786;28;20032;-81
2021/09/22 10:43:50;;;;;;;7.53;5.47;;;;;;;;;;4992841;28;20018;-83
2021/09/22 10:46:47;;;;;;;8.27;5.85;;;;;;;;;;4993943;28;20045;-81
2021/09/22 10:49:37;;;;;;;13.75;6.80;;;;;;;;;;4994134;28;20053;-81
2021/09/22 10:52:30;;;;;;;10.85;5.30;;;;;;;;;;4989141;28;20292;-80
2021/09/22 10:55:17;;;;;;;8.00;5.20;;;;;;;;;;4993854;28;20786;-80
2021/09/22 10:58:09;;;;;;;9.18;5.47;;;;;;;;;;4991210;28;20033;-81
2021/09/22 11:00:55;;;;;;;7.80;5.65;;;;;;;;;;4993293;28;20362;-79
2021/09/22 11:03:49;;;;;;;6.97;4.88;;;;;;;;;;4992748;28;20029;-80
2021/09/22 11:06:43;;;;;;;8.50;5.88;;;;;;;;;;4993876;28;20387;-78
2021/09/22 11:09:30;;;;;;;9.38;5.68;;;;;;;;;;4977164;28;20042;-79
2021/09/22 11:12:16;;;;;;;6.70;4.63;;;;;;;;;;4994343;28;20038;-79
2021/09/22 11:15:03;;;;;;;6.15;4.65;;;;;;;;;;4993768;28;20057;-78
2021/09/22 11:17:48;;;;;;;8.68;5.35;;;;;;;;;;4991649;28;20026;-78
2021/09/22 11:20:33;;;;;;;8.93;5.53;;;;;;;;;;4990150;28;20542;-78
2021/09/22 11:23:20;;;;;;;10.38;5.32;;;;;;;;;;4992458;28;20061;-79
2021/09/22 11:26:07;;;;;;;6.07;4.57;;;;;;;;;;4993005;28;20449;-78
2021/09/22 11:28:53;;;;;;;6.80;3.60;;;;;;;;;;4990830;28;20093;-77
2021/09/22 11:31:38;;;;;;;8.70;5.18;;;;;;;;;;4993728;28;20036;-80
2021/09/22 11:34:27;;;;;;;6.13;3.95;;;;;;;;;;4991022;28;20025;-78
2021/09/22 11:37:13;;;;;;;6.15;3.95;;;;;;;;;;4988534;28;20080;-81
2021/09/22 11:40:11;;;;;;;7.95;3.53;;;;;;;;;;4995306;28;20037;-82
2021/09/22 11:42:56;;;;;;;5.47;3.63;;;;;;;;;;4989859;28;20029;-80
2021/09/22 11:45:43;;;;;;;5.13;3.08;;;;;;;;;;4991406;28;20033;-82
2021/09/22 11:48:30;;;;;;;5.63;3.22;;;;;;;;;;4993255;28;20100;-81
2021/09/22 11:51:15;;;;;;;3.88;3.05;;;;;;;;;;4980326;28;20036;-81
2021/09/22 11:54:00;;;;;;;3.92;3.17;;;;;;;;;;4992921;28;20123;-81
2021/09/22 11:56:45;;;;;;;5.93;3.65;;;;;;;;;;5007413;28;20057;-80
2021/09/22 11:59:32;;;;;;;5.97;4.45;;;;;;;;;;4992807;28;20026;-83
2021/09/22 12:02:17;;;;;;;5.03;3.50;;;;;;;;;;4991032;28;20032;-81
2021/09/22 12:05:02;;;;;;;4.60;3.63;;;;;;;;;;4991603;28;20036;-80
2021/09/22 12:07:51;;;;;;;6.88;3.70;;;;;;;;;;4990500;28;20022;-80
2021/09/22 12:10:43;;;;;;;6.53;4.20;;;;;;;;;;4991110;28;20018;-80
2021/09/22 12:13:29;;;;;;;6.20;3.90;;;;;;;;;;4992502;28;20029;-80
2021/09/22 12:16:17;;;;;;;9.55;3.65;;;;;;;;;;4990837;28;20388;-79
2021/09/22 12:19:02;;;;;;;5.40;3.40;;;;;;;;;;4993269;28;20748;-79
2021/09/22 12:21:49;;;;;;;7.57;3.60;;;;;;;;;;4988324;28;20041;-78
2021/09/22 12:24:36;;;;;;;4.25;3.22;;;;;;;;;;4991561;28;20030;-79
2021/09/22 12:27:22;;;;;;;4.53;3.22;;;;;;;;;;4978134;28;20080;-79
2021/09/22 12:30:09;;;;;;;5.60;2.95;;;;;;;;;;4990697;28;20014;-78
2021/09/22 12:32:56;;;;;;;6.75;3.58;;;;;;;;;;4990267;28;20721;-78
2021/09/22 12:35:44;;;;;;;5.28;3.30;;;;;;;;;;4989152;28;20044;-79
2021/09/22 12:38:29;;;;;;;5.38;3.13;;;;;;;;;;4993222;28;20130;-79
2021/09/22 12:41:15;;;;;;;5.93;2.70;;;;;;;;;;4990726;28;20496;-78
2021/09/22 12:44:00;;;;;;;6.43;3.25;;;;;;;;;;4993863;28;20133;-78
2021/09/22 12:46:47;;;;;;;6.43;3.10;;;;;;;;;;4992111;28;20125;-78
2021/09/22 12:49:33;;;;;;;4.55;3.00;;;;;;;;;;5003439;28;20050;-79
2021/09/22 12:52:21;;;;;;;3.78;3.05;;;;;;;;;;4991626;28;20365;-79
2021/09/22 12:55:13;;;;;;;6.32;3.50;;;;;;;;;;4982759;28;20116;-82
2021/09/22 12:57:59;;;;;;;6.03;3.72;;;;;;;;;;4996044;28;20578;-84
2021/09/22 13:00:56;;;;;;;5.18;3.58;;;;;;;;;;4996995;28;20049;-83
2021/09/22 13:03:43;;;;;;;5.18;3.25;;;;;;;;;;4994147;28;20029;-83
2021/09/22 13:06:31;;;;;;;6.97;3.15;;;;;;;;;;4994244;28;20487;-82
2021/09/22 13:09:28;;;;;;;5.38;3.05;;;;;;;;;;5011749;28;20033;-82
2021/09/22 13:12:29;;;;;;;7.50;3.47;;;;;;;;;;4991399;28;20037;-81
2021/09/22 13:15:27;;;;;;;6.43;4.18;;;;;;;;;;4994623;28;20065;-81
2021/09/22 13:18:13;;;;;;;5.35;4.00;;;;;;;;;;4993958;28;20030;-80
2021/09/22 13:21:00;;;;;;;8.68;4.07;;;;;;;;;;4995739;28;20025;-79
2021/09/22 13:23:47;;;;;;;6.47;3.88;;;;;;;;;;4979517;28;20041;-84
2021/09/22 13:26:32;;;;;;;5.15;3.60;;;;;;;;;;4994987;28;20022;-82
2021/09/22 13:29:19;;;;;;;7.45;4.53;;;;;;;;;;4995648;28;20096;-83
2021/09/22 13:32:04;;;;;;;8.40;4.20;;;;;;;;;;4995694;28;20079;-82
2021/09/22 13:34:50;;;;;;;7.40;4.15;;;;;;;;;;5008161;28;20034;-82
2021/09/22 13:37:35;;;;;;;5.50;3.40;;;;;;;;;;4995148;28;20641;-82
2021/09/22 13:40:20;;;;;;;5.80;4.60;;;;;;;;;;4994062;28;20382;-84
2021/09/22 13:43:05;;;;;;;4.80;3.83;;;;;;;;;;4980956;28;20439;-81
2021/09/22 13:45:51;;;;;;;7.68;3.90;;;;;;;;;;4994642;28;20030;-83
2021/09/22 13:48:36;;;;;;;7.05;4.03;;;;;;;;;;4994271;28;20921;-85
2021/09/22 13:51:22;;;;;;;8.27;4.50;;;;;;;;;;4995416;28;20026;-89
2021/09/22 13:54:07;;;;;;;4.95;3.60;;;;;;;;;;4991228;28;20022;-85
2021/09/22 13:56:52;;;;;;;4.90;3.15;;;;;;;;;;4995967;28;20083;-85
2021/09/22 13:59:40;;;;;;;6.60;4.47;;;;;;;;;;4981689;28;20097;-85
2021/09/22 14:02:25;;;;;;;6.45;4.00;;;;;;;;;;4993418;28;20041;-86
2021/09/22 14:05:10;;;;;;;4.82;3.33;;;;;;;;;;4995397;28;20030;-83
2021/09/22 14:08:00;;;;;;;5.40;3.60;;;;;;;;;;4994355;28;20080;-84
2021/09/22 14:10:45;;;;;;;5.20;3.25;;;;;;;;;;4991555;28;20029;-82
2021/09/22 14:13:31;;;;;;;3.95;2.83;;;;;;;;;;4996210;28;20076;-82
2021/09/22 14:16:16;;;;;;;6.03;3.35;;;;;;;;;;4994857;28;20668;-83
2021/09/22 14:19:01;;;;;;;3.30;2.60;;;;;;;;;;4996158;28;20042;-83
2021/09/22 14:21:47;;;;;;;4.57;3.72;;;;;;;;;;4993518;28;20014;-82
2021/09/22 14:24:32;;;;;;;5.55;3.53;;;;;;;;;;4991162;28;20022;-82
2021/09/22 14:27:17;;;;;;;9.05;4.00;;;;;;;;;;4995297;28;20042;-83
2021/09/22 14:30:05;;;;;;;6.45;3.67;;;;;;;;;;4994445;28;20085;-82
2021/09/22 14:32:51;;;;;;;4.97;3.65;;;;;;;;;;4995240;28;20084;-82
2021/09/22 14:35:37;;;;;;;4.63;3.30;;;;;;;;;;4993833;28;20026;-82
2021/09/22 14:38:22;;;;;;;6.55;3.65;;;;;;;;;;4994958;28;20073;-84
2021/09/22 14:41:08;;;;;;;6.40;2.83;;;;;;;;;;4991761;28;20136;-82
2021/09/22 14:43:53;;;;;;;8.20;3.10;;;;;;;;;;4995482;28;20033;-82
2021/09/22 14:46:38;;;;;;;7.03;3.53;;;;;;;;;;4994928;28;20404;-82
2021/09/22 14:49:23;;;;;;;5.72;3.10;;;;;;;;;;4994385;28;20045;-83
2021/09/22 14:52:09;;;;;;;4.38;3.03;;;;;;;;;;4993072;28;20066;-83
2021/09/22 14:54:54;;;;;;;5.68;3.33;;;;;;;;;;4995578;28;20030;-84
2021/09/22 14:57:43;;;;;;;5.00;3.58;;;;;;;;;;4993530;28;20760;-84
2021/09/22 15:00:29;;;;;;;;;;;;;;;;;;4976869;28;20111;-84
2021/09/22 15:03:14;;;;;;;3.97;3.05;;;;;;;;;;4980787;28;19906;-83
2021/09/22 15:05:59;;;;;;;11.30;3.53;;;;;;;;;;4993703;28;20025;-83
2021/09/22 15:08:44;;;;;;;7.10;3.33;;;;;;;;;;5007278;28;20025;-83
2021/09/22 15:11:29;;;;;;;4.72;3.10;;;;;;;;;;4981685;28;20026;-83
2021/09/22 15:14:15;;;;;;;4.15;2.80;;;;;;;;;;4995958;28;20033;-83
2021/09/22 15:17:00;;;;;;;5.53;3.08;;;;;;;;;;4993761;28;20025;-83
2021/09/22 15:19:45;;;;;;;6.05;3.35;;;;;;;;;;4995536;28;20037;-81
2021/09/22 15:22:30;;;;;;;3.72;3.08;;;;;;;;;;4990703;28;20419;-82
2021/09/22 15:25:17;;;;;;;4.22;2.72;;;;;;;;;;4994263;28;20029;-82
2021/09/22 15:28:02;;;;;;;4.25;3.03;;;;;;;;;;4991400;28;20041;-83
2021/09/22 15:30:48;;;;;;;6.80;3.40;;;;;;;;;;4989370;28;20018;-85
2021/09/22 15:33:34;;;;;;;6.05;3.17;;;;;;;;;;4994005;28;20030;-85
2021/09/22 15:36:20;;;;;;;6.80;3.22;;;;;;;;;;4993738;28;20558;-84
2021/09/22 15:39:05;;;;;;;5.70;3.20;;;;;;;;;;4992849;28;20306;-82
2021/09/22 15:41:50;;;;;;;4.28;2.83;;;;;;;;;;4994275;28;20030;-83
2021/09/22 15:44:36;;;;;;;5.57;2.83;;;;;;;;;;4993068;28;20037;-83
2021/09/22 15:47:21;;;;;;;6.22;2.80;;;;;;;;;;4994032;28;20128;-83
2021/09/22 15:50:22;;;;;;;7.15;3.75;;;;;;;;;;4989762;28;20117;-83
2021/09/22 15:53:08;;;;;;;7.78;3.17;;;;;;;;;;4996743;28;20061;-85
2021/09/22 15:55:53;;;;;;;5.35;3.00;;;;;;;;;;4991913;28;20507;-85
2021/09/22 15:58:38;;;;;;;6.72;3.03;;;;;;;;;;4992374;28;20064;-79
2021/09/22 16:01:26;;;;;;;7.53;3.10;;;;;;;;;;4994222;28;20021;-80
2021/09/22 16:04:12;;;;;;;5.65;2.40;;;;;;;;;;4978402;28;20022;-76
2021/09/22 16:06:59;;;;;;;8.07;2.95;;;;;;;;;;4993149;28;20042;-80
2021/09/22 16:09:44;;;;;;;4.63;3.10;;;;;;;;;;4993448;28;20021;-81
2021/09/22 16:12:30;;;;;;;5.18;2.70;;;;;;;;;;4991214;28;20220;-85
2021/09/22 16:15:15;;;;;;;4.88;2.92;;;;;;;;;;4991488;28;20435;-86
2021/09/22 16:18:00;;;;;;;5.78;3.28;;;;;;;;;;4992835;28;20028;-87
2021/09/22 16:20:46;;;;;;;6.80;3.38;;;;;;;;;;4990577;28;20069;-86
2021/09/22 16:23:31;;;;;;;9.60;3.40;;;;;;;;;;4993035;28;20024;-85
2021/09/22 16:26:16;;;;;;;5.05;2.60;;;;;;;;;;4993300;28;20021;-85
2021/09/22 16:29:02;;;;;;;5.72;3.00;;;;;;;;;;4997610;28;20095;-86
2021/09/22 16:31:47;;;;;;;4.78;2.63;;;;;;;;;;4995764;28;20050;-87
2021/09/22 16:34:32;;;;;;;4.32;2.80;;;;;;;;;;4996976;28;20044;-88
2021/09/22 16:37:18;;;;;;;6.30;2.83;;;;;;;;;;4996593;28;20029;-85
2021/09/22 16:40:05;;;;;;;5.05;2.95;;;;;;;;;;4992851;28;20030;-87
2021/09/22 16:42:50;;;;;;;4.63;2.70;;;;;;;;;;4997253;28;20056;-87
2021/09/22 16:45:35;;;;;;;5.05;2.88;;;;;;;;;;4996624;28;20065;-86
2021/09/22 16:48:20;;;;;;;4.88;2.95;;;;;;;;;;4994859;28;20500;-86
2021/09/22 16:51:06;;;;;;;8.90;3.30;;;;;;;;;;4993853;28;20030;-88
2021/09/22 16:53:52;;;;;;;5.63;3.10;;;;;;;;;;4993979;28;20030;-86
2021/09/22 16:56:38;;;;;;;5.40;3.03;;;;;;;;;;4995162;28;20034;-87
2021/09/22 16:59:23;;;;;;;4.25;2.80;;;;;;;;;;4995911;28;20395;-90
2021/09/22 17:02:08;;;;;;;5.72;3.50;;;;;;;;;;4992868;28;20041;-88
2021/09/22 17:04:53;;;;;;;5.60;3.08;;;;;;;;;;4997753;28;20033;-86
2021/09/22 17:07:40;;;;;;;5.03;3.00;;;;;;;;;;4996784;28;20092;-88
2021/09/22 17:10:25;;;;;;;4.90;2.90;;;;;;;;;;4999126;28;20017;-90
2021/09/22 17:13:10;;;;;;;3.95;2.97;;;;;;;;;;4997332;28;20464;-90
2021/09/22 17:15:56;;;;;;;6.10;3.63;;;;;;;;;;4999547;28;20040;-89
2021/09/22 17:18:41;;;;;;;4.28;2.90;;;;;;;;;;4998178;28;20225;-89
2021/09/22 17:21:26;;;;;;;7.20;3.35;;;;;;;;;;4997667;28;20060;-87
2021/09/22 17:24:11;;;;;;;6.28;3.42;;;;;;;;;;4996663;28;20457;-87
2021/09/22 17:26:57;;;;;;;8.70;3.72;;;;;;;;;;4997510;28;20030;-86
2021/09/22 17:29:42;;;;;;;4.88;3.25;;;;;;;;;;4993624;28;20033;-84
2021/09/22 17:32:27;;;;;;;7.72;3.33;;;;;;;;;;4995381;28;20030;-86
2021/09/22 17:35:13;;;;;;;5.50;3.35;;;;;;;;;;4988089;28;20048;-84
2021/09/22 17:37:58;;;;;;;5.22;3.53;;;;;;;;;;4993658;28;20065;-86
2021/09/22 17:40:44;;;;;;;6.03;3.45;;;;;;;;;;4996950;28;20041;-83
2021/09/22 17:43:29;;;;;;;5.25;3.67;;;;;;;;;;4993777;28;20038;-84
2021/09/22 17:46:15;;;;;;;4.95;3.00;;;;;;;;;;4995111;28;20022;-84
2021/09/22 17:49:01;;;;;;;6.35;3.30;;;;;;;;;;4982154;28;20046;-85
2021/09/22 17:51:46;;;;;;;5.53;3.70;;;;;;;;;;4997164;28;20049;-86
2021/09/22 17:54:31;;;;;;;7.03;3.78;;;;;;;;;;4991426;28;20113;-86
2021/09/22 17:57:17;;;;;;;5.50;3.40;;;;;;;;;;4997309;28;20476;-87
2021/09/22 18:00:03;;;;;;;7.38;3.72;;;;;;;;;;4995252;28;20108;-86
2021/09/22 18:02:48;;;;;;;5.30;3.47;;;;;;;;;;4991744;28;20472;-85
2021/09/22 18:05:36;;;;;;;7.47;3.95;;;;;;;;;;4994439;28;20488;-87
2021/09/22 18:08:21;;;;;;;6.82;3.65;;;;;;;;;;4979310;28;20112;-85
2021/09/22 18:11:07;;;;;;;5.25;3.83;;;;;;;;;;4995875;28;20116;-84
2021/09/22 18:13:52;;;;;;;7.85;4.00;;;;;;;;;;4980904;28;20029;-84
2021/09/22 18:16:37;;;;;;;4.80;3.28;;;;;;;;;;4994075;28;20500;-85
2021/09/22 18:19:26;;;;;;;6.13;3.45;;;;;;;;;;4990182;28;20018;-85
2021/09/22 18:22:16;;;;;;;6.07;4.43;;;;;;;;;;4992139;28;20569;-85
2021/09/22 18:25:02;;;;;;;6.47;4.20;;;;;;;;;;4992401;28;20484;-85
2021/09/22 18:27:48;;;;;;;7.25;4.65;;;;;;;;;;4996192;28;20038;-84
2021/09/22 18:30:33;;;;;;;4.57;3.30;;;;;;;;;;4995026;28;20499;-87
2021/09/22 18:33:18;;;;;;;5.15;3.40;;;;;;;;;;4991873;28;20080;-85
2021/09/22 18:36:04;;;;;;;7.85;4.07;;;;;;;;;;4993733;28;20026;-85
2021/09/22 18:38:49;;;;;;;5.70;3.67;;;;;;;;;;4996384;28;20022;-84
2021/09/22 18:41:35;;;;;;;7.82;3.47;;;;;;;;;;4992261;28;20023;-84
2021/09/22 18:44:20;;;;;;;6.75;3.55;;;;;;;;;;4994961;28;20025;-84
2021/09/22 18:47:05;;;;;;;9.93;4.63;;;;;;;;;;4994615;28;20484;-81
2021/09/22 18:49:51;;;;;;;6.68;4.22;;;;;;;;;;4992922;28;20045;-84
2021/09/22 18:52:36;;;;;;;8.73;4.13;;;;;;;;;;5008661;28;20168;-85
2021/09/22 18:55:21;;;;;;;7.78;4.20;;;;;;;;;;4993052;28;20109;-84
2021/09/22 18:58:07;;;;;;;6.57;3.78;;;;;;;;;;5009236;28;20030;-81
2021/09/22 19:00:52;;;;;;;9.05;4.45;;;;;;;;;;4992840;28;20136;-84
2021/09/22 19:03:37;;;;;;;7.57;4.95;;;;;;;;;;4994062;28;20018;-83
2021/09/22 19:06:23;;;;;;;7.55;4.25;;;;;;;;;;4992626;28;20092;-84
2021/09/22 19:09:11;;;;;;;7.78;4.03;;;;;;;;;;4994072;28;20022;-83
2021/09/22 19:11:57;;;;;;;6.30;4.15;;;;;;;;;;4992967;28;20018;-83
2021/09/22 19:14:42;;;;;;;7.38;4.03;;;;;;;;;;4993754;28;20021;-86
2021/09/22 19:17:27;;;;;;;7.88;3.95;;;;;;;;;;4992363;28;20084;-82
2021/09/22 19:20:13;;;;;;;7.38;4.30;;;;;;;;;;4995235;28;20034;-82
2021/09/22 19:22:58;;;;;;;7.10;4.03;;;;;;;;;;4993095;28;20109;-83
2021/09/22 19:25:44;;;;;;;8.48;5.00;;;;;;;;;;4990874;28;20045;-83
2021/09/22 19:28:29;;;;;;;11.98;5.18;;;;;;;;;;4992091;28;20026;-83
2021/09/22 19:31:16;;;;;;;7.40;3.83;;;;;;;;;;4994091;28;20026;-82
2021/09/22 19:34:03;;;;;;;7.53;4.20;;;;;;;;;;4992485;28;20145;-84
2021/09/22 19:36:48;;;;;;;7.40;4.88;;;;;;;;;;4994116;28;20029;-84
2021/09/22 19:39:33;;;;;;;10.10;5.82;;;;;;;;;;4993470;28;20404;-81
2021/09/22 19:42:19;;;;;;;8.25;4.45;;;;;;;;;;4989836;28;20026;-83
2021/09/22 19:45:05;;;;;;;10.93;4.55;;;;;;;;;;4994290;28;20613;-83
2021/09/22 19:47:50;;;;;;;7.88;4.70;;;;;;;;;;4979234;28;20050;-84
2021/09/22 19:50:35;;;;;;;9.18;5.55;;;;;;;;;;4994158;28;20032;-86
2021/09/22 19:53:21;;;;;;;8.18;5.20;;;;;;;;;;4988891;28;20018;-83
2021/09/22 19:56:09;;;;;;;9.40;4.45;;;;;;;;;;4992865;28;20462;-86